Time,TemperatureF,DewpointF,PressureIn,WindDirection,WindDirectionDegrees,WindSpeedMPH,WindSpeedGustMPH,Humidity,HourlyPrecipIn,Conditions,Clouds,dailyrainin,SoftwareType,DateUTC
2014-10-01 13:30:00,67.6,62.6,28.76,North,0,0.0,0.0,84,0.00,,---,0.00,VWS V14.01,2014-10-01 18:30:00,
2014-10-01 13:31:00,67.6,62.6,28.76,North,0,0.0,0.0,84,0.00,,---,0.00,VWS V14.01,2014-10-01 18:31:00,
2014-10-01 13:32:00,67.6,62.6,28.76,East,90,0.0,0.0,84,0.00,,---,0.00,VWS V14.01,2014-10-01 18:32:00,
2014-10-01 13:37:00,67.5,62.5,28.76,ESE,112,0.0,0.0,84,0.00,,---,0.00,VWS V14.01,2014-10-01 18:37:00,
2014-10-01 13:42:00,67.6,62.6,28.76,ESE,112,0.0,0.0,84,0.00,,---,0.00,VWS V14.01,2014-10-01 18:42:00,
2014-10-01 13:48:00,68.0,63.0,28.76,ESE,112,0.0,0.0,84,0.00,,---,0.00,VWS V14.01,2014-10-01 18:48:00,
2014-10-01 13:53:00,68.4,63.0,28.76,ESE,112,0.0,0.0,83,0.00,,---,0.00,VWS V14.01,2014-10-01 18:53:00,
2014-10-01 13:58:00,68.5,63.2,28.76,ESE,112,0.0,0.0,83,0.00,,---,0.00,VWS V14.01,2014-10-01 18:58:00,
2014-10-01 14:03:00,68.5,63.2,28.76,ENE,68,0.0,0.0,83,0.00,,---,0.00,VWS V14.01,2014-10-01 19:03:00,
2014-10-01 14:08:00,68.5,63.2,28.76,ENE,68,0.0,0.0,83,0.00,,---,0.00,VWS V14.01,2014-10-01 19:08:00,
2014-10-01 14:13:00,68.4,63.0,28.76,ENE,68,0.0,0.0,83,0.00,,---,0.00,VWS V14.01,2014-10-01 19:13:00,
2014-10-01 14:18:00,68.4,63.0,28.76,NNE,22,0.0,0.0,83,0.00,,---,0.00,VWS V14.01,2014-10-01 19:18:00,
2014-10-01 14:23:00,68.4,63.0,28.76,NNE,22,0.0,0.0,83,0.00,,---,0.00,VWS V14.01,2014-10-01 19:23:00,
2014-10-01 14:28:00,68.5,63.5,28.76,ESE,112,0.9,0.9,84,0.00,,---,0.00,VWS V14.01,2014-10-01 19:28:00,
2014-10-01 14:33:00,68.5,63.5,28.76,NE,45,0.0,0.9,84,0.00,,---,0.00,VWS V14.01,2014-10-01 19:33:00,
2014-10-01 14:37:00,68.5,63.2,28.76,East,90,0.0,0.0,83,0.00,,---,0.00,VWS V14.01,2014-10-01 19:37:00,
2014-10-01 14:42:00,68.5,63.2,28.76,East,90,0.0,0.0,83,0.00,,---,0.00,VWS V14.01,2014-10-01 19:42:00,
2014-10-01 14:47:00,68.5,63.2,28.73,NNE,22,0.0,0.0,83,0.00,,---,0.00,VWS V14.01,2014-10-01 19:47:00,
2014-10-01 14:52:00,68.7,63.7,28.73,NNE,22,0.0,0.0,84,0.00,,---,0.00,VWS V14.01,2014-10-01 19:52:00,
2014-10-01 14:57:00,68.7,63.7,28.73,NNE,22,0.0,0.0,84,0.00,,---,0.00,VWS V14.01,2014-10-01 19:57:00,
2014-10-01 15:02:00,68.7,63.7,28.73,NE,45,0.0,0.0,84,0.00,,---,0.00,VWS V14.01,2014-10-01 20:02:00,
2014-10-01 15:08:00,68.7,63.7,28.73,NE,45,0.0,0.0,84,0.00,,---,0.00,VWS V14.01,2014-10-01 20:08:00,
2014-10-01 15:13:00,68.5,63.2,28.73,East,90,0.0,0.0,83,0.00,,---,0.00,VWS V14.01,2014-10-01 20:13:00,
2014-10-01 15:18:00,68.5,63.5,28.73,East,90,0.0,0.0,84,0.00,,---,0.00,VWS V14.01,2014-10-01 20:18:00,
2014-10-01 15:19:00,68.5,63.5,28.73,East,90,0.0,0.0,84,0.00,,---,0.00,VWS V14.01,2014-10-01 20:19:00,
2014-10-01 15:24:00,68.5,63.5,28.73,East,90,0.0,0.0,84,0.00,,---,0.00,VWS V14.01,2014-10-01 20:24:00,
2014-10-01 15:29:00,68.5,63.5,28.73,East,90,0.0,0.0,84,0.00,,---,0.00,VWS V14.01,2014-10-01 20:29:00,
2014-10-01 15:34:00,68.5,63.5,28.73,East,90,0.0,0.0,84,0.00,,---,0.00,VWS V14.01,2014-10-01 20:34:00,
2014-10-01 15:39:00,68.5,63.5,28.73,East,90,0.0,0.0,84,0.00,,---,0.00,VWS V14.01,2014-10-01 20:39:00,
2014-10-01 15:44:00,68.7,63.7,28.73,East,90,0.0,0.0,84,0.00,,---,0.00,VWS V14.01,2014-10-01 20:44:00,
2014-10-01 15:49:00,68.9,63.9,28.73,East,90,0.0,0.0,84,0.00,,---,0.00,VWS V14.01,2014-10-01 20:49:00,
2014-10-01 15:54:00,69.1,64.1,28.73,East,90,0.0,0.0,84,0.00,,---,0.00,VWS V14.01,2014-10-01 20:54:00,
2014-10-01 15:59:00,69.3,64.2,28.73,East,90,0.0,0.0,84,0.00,,---,0.00,VWS V14.01,2014-10-01 20:59:00,
2014-10-01 16:04:00,69.4,64.4,28.73,East,90,0.0,0.0,84,0.00,,---,0.00,VWS V14.01,2014-10-01 21:04:00,
2014-10-01 16:09:00,69.4,64.4,28.73,East,90,0.0,0.0,84,0.00,,---,0.00,VWS V14.01,2014-10-01 21:09:00,
2014-10-01 16:13:00,69.6,64.6,28.73,East,90,0.0,0.0,84,0.00,,---,0.00,VWS V14.01,2014-10-01 21:13:00,
2014-10-01 16:18:00,69.8,64.4,28.73,East,90,0.0,0.0,83,0.00,,---,0.00,VWS V14.01,2014-10-01 21:18:00,
2014-10-01 16:24:00,69.8,64.4,28.73,East,90,0.0,0.0,83,0.00,,---,0.00,VWS V14.01,2014-10-01 21:24:00,
2014-10-01 16:29:00,69.8,64.4,28.73,East,90,0.0,0.0,83,0.00,,---,0.00,VWS V14.01,2014-10-01 21:29:00,
2014-10-01 16:34:00,69.8,64.4,28.73,East,90,0.0,0.0,83,0.00,,---,0.00,VWS V14.01,2014-10-01 21:34:00,
2014-10-01 16:36:00,69.8,64.4,28.73,East,90,0.0,0.0,83,0.00,,---,0.00,VWS V14.01,2014-10-01 21:36:00,
2014-10-01 16:41:00,70.0,64.6,28.73,ENE,68,0.0,0.0,83,0.00,,---,0.00,VWS V14.01,2014-10-01 21:41:00,
2014-10-01 16:46:00,70.2,64.8,28.73,NNE,22,0.0,0.0,83,0.00,,---,0.00,VWS V14.01,2014-10-01 21:46:00,
2014-10-01 16:51:00,70.0,64.6,28.73,NNE,22,0.0,0.0,83,0.00,,---,0.00,VWS V14.01,2014-10-01 21:51:00,
2014-10-01 16:56:00,70.0,64.6,28.73,East,90,2.0,2.0,83,0.00,,---,0.00,VWS V14.01,2014-10-01 21:56:00,
2014-10-01 17:01:00,69.8,64.4,28.76,East,90,0.0,0.0,83,0.00,,---,0.00,VWS V14.01,2014-10-01 22:01:00,
2014-10-01 17:06:00,69.6,64.2,28.76,East,90,0.0,0.0,83,0.00,,---,0.00,VWS V14.01,2014-10-01 22:06:00,
2014-10-01 17:11:00,69.4,64.1,28.76,East,90,0.0,0.0,83,0.00,,---,0.00,VWS V14.01,2014-10-01 22:11:00,
2014-10-01 17:16:00,69.4,64.4,28.76,East,90,0.0,0.0,84,0.00,,---,0.00,VWS V14.01,2014-10-01 22:16:00,
2014-10-01 17:21:00,69.4,64.4,28.76,East,90,0.0,0.0,84,0.00,,---,0.00,VWS V14.01,2014-10-01 22:21:00,
2014-10-01 17:26:00,69.3,64.2,28.76,East,90,0.0,0.0,84,0.00,,---,0.00,VWS V14.01,2014-10-01 22:26:00,
2014-10-01 17:31:00,69.3,64.2,28.76,East,90,0.0,0.0,84,0.00,,---,0.00,VWS V14.01,2014-10-01 22:31:00,
2014-10-01 17:36:00,69.1,64.1,28.76,East,90,0.0,0.0,84,0.00,,---,0.00,VWS V14.01,2014-10-01 22:36:00,
2014-10-01 17:41:00,69.1,64.1,28.76,East,90,0.0,0.0,84,0.00,,---,0.00,VWS V14.01,2014-10-01 22:41:00,
2014-10-01 17:46:00,69.1,64.1,28.76,East,90,0.0,0.0,84,0.00,,---,0.00,VWS V14.01,2014-10-01 22:46:00,
2014-10-01 17:51:00,68.9,63.9,28.76,East,90,0.0,0.0,84,0.00,,---,0.00,VWS V14.01,2014-10-01 22:51:00,
2014-10-01 17:56:00,68.9,63.9,28.76,East,90,0.0,0.0,84,0.00,,---,0.00,VWS V14.01,2014-10-01 22:56:00,
2014-10-01 18:01:00,68.9,63.9,28.76,East,90,0.0,0.0,84,0.00,,---,0.00,VWS V14.01,2014-10-01 23:01:00,
2014-10-01 18:06:00,68.9,63.9,28.76,East,90,0.0,0.0,84,0.00,,---,0.00,VWS V14.01,2014-10-01 23:06:00,
2014-10-01 18:11:00,68.9,63.9,28.76,East,90,0.0,0.0,84,0.00,,---,0.00,VWS V14.01,2014-10-01 23:11:00,
2014-10-01 18:16:00,68.9,63.9,28.76,East,90,0.0,0.0,84,0.00,,---,0.00,VWS V14.01,2014-10-01 23:16:00,
2014-10-01 18:21:00,68.9,63.9,28.76,East,90,0.0,0.0,84,0.00,,---,0.00,VWS V14.01,2014-10-01 23:21:00,
2014-10-01 18:26:00,68.7,63.7,28.76,East,90,0.0,0.0,84,0.00,,---,0.00,VWS V14.01,2014-10-01 23:26:00,
2014-10-01 18:31:00,68.7,63.7,28.76,East,90,0.0,0.0,84,0.00,,---,0.00,VWS V14.01,2014-10-01 23:31:00,
2014-10-01 18:34:00,68.5,63.5,28.76,East,90,0.0,0.0,84,0.00,,---,0.00,VWS V14.01,2014-10-01 23:34:00,
2014-10-01 18:35:00,68.5,63.5,28.76,East,90,0.0,0.0,84,0.00,,---,0.00,VWS V14.01,2014-10-01 23:35:00,
2014-10-01 18:40:00,68.5,63.5,28.76,East,90,0.0,0.0,84,0.00,,---,0.00,VWS V14.01,2014-10-01 23:40:00,
2014-10-01 18:45:00,68.4,63.3,28.76,East,90,0.0,0.0,84,0.00,,---,0.00,VWS V14.01,2014-10-01 23:45:00,
2014-10-01 18:50:00,68.2,63.2,28.76,East,90,0.0,0.0,84,0.00,,---,0.00,VWS V14.01,2014-10-01 23:50:00,
2014-10-01 18:55:00,68.0,63.0,28.76,East,90,0.0,0.0,84,0.00,,---,0.00,VWS V14.01,2014-10-01 23:55:00,